Terminal Aerodrome Forecast
Issued by NWS

Home | Current Version | Previous Version | Graphics & Text | Print | Product List | Glossary Off
Versions: 1 2 3 4 5 6 7 8 9 10 11 12 13 14

000
FTUS43 KGRB 141100
TAFAUW
TAF
KAUW 141135Z 1412/1512 25005KT P6SM BKN070
     FM141400 29010KT P6SM VCSH SCT035 BKN050
      TEMPO 1416/1420 5SM -SHRA OVC030
     FM142000 31008KT P6SM BKN025 OVC040
      TEMPO 1506/1510 SCT006 OVC012=

USA.gov is the U.S. government's official web portal to all federal, state and local government web resources and services.